Latest Weather Observations for Outer Harbor (Black Pole)

IDS60801

Issued at 7:02 pm CDT Saturday 10 December 2016 (issued every 30 minutes, with the page automatically refreshed every 10 minutes)

About weather observations | Map of weather stations | Latest weather observations for SA | Other Formats
Station Details ID: 023052 Name: BLACK POLE Lat: -34.73 Lon: 138.47 Height: 6.27 m
Data from the previous 72 hours. | See also: Recent months for locations in South Australia
Date/Time
CDT
Temp
°C
App
Temp
°C
Dew
Point
°C
Rel
Hum
%
Delta-T
°C
Wind Press
QNH
hPa
Press
MSL
hPa
Rain since
9am
mm
Dir  Spd
km/h
Gust
km/h
Spd
kts
Gust
kts
10/06:30pm - - - - - SSW 32 35 17 19 - - -
10/06:00pm - - - - - SSW 32 35 17 19 - - -
10/05:30pm - - - - - S 32 35 17 19 - - -
10/05:00pm - - - - - S 32 35 17 19 - - -
10/04:30pm - - - - - S 30 33 16 18 - - -
10/04:00pm - - - - - S 32 35 17 19 - - -
10/03:30pm - - - - - SSW 30 35 16 19 - - -
10/03:00pm - - - - - SSW 30 32 16 17 - - -
10/02:30pm - - - - - SSW 32 33 17 18 - - -
10/02:00pm - - - - - SSW 32 35 17 19 - - -
10/01:30pm - - - - - SSW 26 30 14 16 - - -
10/01:00pm - - - - - SSW 26 30 14 16 - - -
10/12:30pm - - - - - S 24 28 13 15 - - -
10/12:00pm - - - - - S 17 19 9 10 - - -
10/11:30am - - - - - SSW 11 15 6 8 - - -
10/11:00am - - - - - SSW 11 13 6 7 - - -
10/10:30am - - - - - E 4 7 2 4 - - -
10/10:00am - - - - - NE 7 13 4 7 - - -
10/09:30am - - - - - ENE 6 13 3 7 - - -
10/09:00am - - - - - NE 6 7 3 4 - - -
10/08:30am - - - - - ENE 7 11 4 6 - - -
10/08:00am - - - - - ENE 9 11 5 6 - - -
10/07:30am - - - - - E 13 15 7 8 - - -
10/07:00am - - - - - E 15 19 8 10 - - -
10/06:30am - - - - - NE 9 13 5 7 - - -
10/06:00am - - - - - NE 11 15 6 8 - - -
10/05:30am - - - - - NE 9 13 5 7 - - -
10/05:00am - - - - - NE 6 9 3 5 - - -
10/04:30am - - - - - ENE 13 17 7 9 - - -
10/04:00am - - - - - NE 11 13 6 7 - - -
10/03:30am - - - - - E 7 11 4 6 - - -
10/03:00am - - - - - ENE 7 13 4 7 - - -
10/02:30am - - - - - ENE 9 13 5 7 - - -
10/02:00am - - - - - ESE 9 15 5 8 - - -
10/01:30am - - - - - ESE 11 20 6 11 - - -
10/01:00am - - - - - ESE 15 19 8 10 - - -
10/12:30am - - - - - ESE 15 20 8 11 - - -
10/12:00am - - - - - ESE 15 20 8 11 - - -
 
Date/Time
CDT
Temp
°C
App
Temp
°C
Dew
Point
°C
Rel
Hum
%
Delta-T
°C
Wind Press
QNH
hPa
Press
MSL
hPa
Rain since
9am
mm
Dir  Spd
km/h
Gust
km/h
Spd
kts
Gust
kts
09/11:30pm - - - - - ESE 13 17 7 9 - - -
09/11:00pm - - - - - SE 13 17 7 9 - - -
09/10:30pm - - - - - SSE 20 24 11 13 - - -
09/10:00pm - - - - - SSE 26 32 14 17 - - -
09/09:30pm - - - - - SSE 28 33 15 18 - - -
09/09:00pm - - - - - SSE 32 35 17 19 - - -
09/08:30pm - - - - - SSE 33 37 18 20 - - -
09/08:00pm - - - - - S 35 41 19 22 - - -
09/07:30pm - - - - - SSW 41 46 22 25 - - -
09/07:00pm - - - - - SSW 41 48 22 26 - - -
09/06:30pm - - - - - SSW 39 48 21 26 - - -
09/06:00pm - - - - - SSW 37 41 20 22 - - -
09/05:30pm - - - - - SSW 33 39 18 21 - - -
09/05:00pm - - - - - SSW 33 39 18 21 - - -
09/04:30pm - - - - - SSW 32 37 17 20 - - -
09/04:00pm - - - - - SSW 30 35 16 19 - - -
09/03:30pm - - - - - SW 28 37 15 20 - - -
09/03:00pm - - - - - SW 24 30 13 16 - - -
09/02:30pm - - - - - SW 22 28 12 15 - - -
09/02:00pm - - - - - SW 24 28 13 15 - - -
09/01:30pm - - - - - SW 20 28 11 15 - - -
09/01:00pm - - - - - SW 20 28 11 15 - - -
09/12:30pm - - - - - SSW 20 26 11 14 - - -
09/12:00pm - - - - - SSW 22 28 12 15 - - -
09/11:30am - - - - - SSW 20 26 11 14 - - -
09/11:00am - - - - - SSW 22 32 12 17 - - -
09/10:30am - - - - - SSW 22 28 12 15 - - -
09/10:00am - - - - - SSW 19 26 10 14 - - -
09/09:30am - - - - - S 24 30 13 16 - - -
09/09:00am - - - - - SSE 24 32 13 17 - - -
09/08:30am - - - - - SSE 26 37 14 20 - - -
09/08:00am - - - - - SSE 20 28 11 15 - - -
09/07:30am - - - - - SSE 22 28 12 15 - - -
09/07:00am - - - - - SSE 30 37 16 20 - - -
09/06:30am - - - - - SE 24 32 13 17 - - -
09/06:00am - - - - - S 28 35 15 19 - - -
09/05:30am - - - - - SSW 26 35 14 19 - - -
09/05:00am - - - - - SSW 28 35 15 19 - - -
09/04:30am - - - - - SSW 35 43 19 23 - - -
09/04:00am - - - - - SSW 26 41 14 22 - - -
09/03:30am - - - - - SSW 30 39 16 21 - - -
09/03:00am - - - - - S 33 41 18 22 - - -
09/02:30am - - - - - SSW 33 43 18 23 - - -
09/02:00am - - - - - SSW 35 43 19 23 - - -
09/01:30am - - - - - SSW 37 46 20 25 - - -
09/01:00am - - - - - SSW 39 48 21 26 - - -
09/12:30am - - - - - SSW 41 48 22 26 - - -
09/12:00am - - - - - S 43 52 23 28 - - -
 
Date/Time
CDT
Temp
°C
App
Temp
°C
Dew
Point
°C
Rel
Hum
%
Delta-T
°C
Wind Press
QNH
hPa
Press
MSL
hPa
Rain since
9am
mm
Dir  Spd
km/h
Gust
km/h
Spd
kts
Gust
kts
08/11:30pm - - - - - SSW 41 50 22 27 - - -
08/11:00pm - - - - - SSW 44 57 24 31 - - -
08/10:30pm - - - - - SSW 43 48 23 26 - - -
08/10:14pm - - - - - SSW 41 59 22 32 - - -
08/10:00pm - - - - - SSW 44 56 24 30 - - -
08/09:30pm - - - - - SSW 41 48 22 26 - - -
08/09:00pm - - - - - SSW 41 50 22 27 - - -
08/08:30pm - - - - - SW 44 54 24 29 - - -
08/08:00pm - - - - - SW 46 56 25 30 - - -
08/07:30pm - - - - - SW 48 57 26 31 - - -
08/07:00pm - - - - - SW 50 59 27 32 - - -
08/06:30pm - - - - - SW 46 56 25 30 - - -
08/06:00pm - - - - - SW 48 57 26 31 - - -
08/05:30pm - - - - - SW 46 54 25 29 - - -
08/05:00pm - - - - - SW 46 57 25 31 - - -
08/04:30pm - - - - - SW 43 50 23 27 - - -
08/04:00pm - - - - - SW 46 57 25 31 - - -
08/03:30pm - - - - - SW 46 56 25 30 - - -
08/03:00pm - - - - - SW 48 59 26 32 - - -
08/02:30pm - - - - - SW 48 63 26 34 - - -
08/02:00pm - - - - - SW 46 56 25 30 - - -
08/01:30pm - - - - - SW 50 61 27 33 - - -
08/01:00pm - - - - - SW 50 65 27 35 - - -
08/12:30pm - - - - - SW 52 61 28 33 - - -
08/12:00pm - - - - - SW 46 56 25 30 - - -
08/11:30am - - - - - WSW 46 57 25 31 - - -
08/11:00am - - - - - WSW 39 50 21 27 - - -
08/10:30am - - - - - WSW 41 52 22 28 - - -
08/10:00am - - - - - WSW 44 56 24 30 - - -
08/09:30am - - - - - WSW 48 59 26 32 - - -
08/09:00am - - - - - WSW 50 59 27 32 - - -
08/08:30am - - - - - WSW 46 61 25 33 - - -
08/08:00am - - - - - WSW 46 57 25 31 - - -
08/07:30am - - - - - WSW 46 56 25 30 - - -
08/07:00am - - - - - WSW 50 61 27 33 - - -
08/06:30am - - - - - WSW 52 63 28 34 - - -
08/06:00am - - - - - WSW 46 57 25 31 - - -
08/05:30am - - - - - WSW 44 57 24 31 - - -
08/05:00am - - - - - WSW 50 61 27 33 - - -
08/04:30am - - - - - WSW 56 67 30 36 - - -
08/04:00am - - - - - W 46 57 25 31 - - -
08/03:30am - - - - - WSW 46 57 25 31 - - -
08/03:00am - - - - - WSW 46 59 25 32 - - -
08/02:30am - - - - - W 43 63 23 34 - - -
08/02:12am - - - - - W 44 63 24 34 - - -
08/02:00am - - - - - WNW 39 46 21 25 - - -
08/01:30am - - - - - NW 46 63 25 34 - - -
08/01:00am - - - - - WNW 48 59 26 32 - - -
08/12:30am - - - - - WNW 41 52 22 28 - - -
08/12:16am - - - - - W 35 52 19 28 - - -
08/12:00am - - - - - NNW 22 63 12 34 - - -
 
Date/Time
CDT
Temp
°C
App
Temp
°C
Dew
Point
°C
Rel
Hum
%
Delta-T
°C
Wind Press
QNH
hPa
Press
MSL
hPa
Rain since
9am
mm
Dir  Spd
km/h
Gust
km/h
Spd
kts
Gust
kts
07/11:59pm - - - - - N 20 63 11 34 - - -
07/11:30pm - - - - - NE 20 24 11 13 - - -
07/11:00pm - - - - - NNE 17 22 9 12 - - -
07/10:30pm - - - - - NW 30 41 16 22 - - -
07/10:13pm - - - - - NW 17 48 9 26 - - -
07/10:00pm - - - - - NNE 22 26 12 14 - - -
07/09:30pm - - - - - N 22 26 12 14 - - -
07/09:00pm - - - - - N 19 22 10 12 - - -
07/08:30pm - - - - - NNW 20 32 11 17 - - -
07/08:00pm - - - - - NNW 17 19 9 10 - - -
07/07:30pm - - - - - NNE 11 13 6 7 - - -

Other Formats:

Comma delimited format used in spreadsheet applications
http://www.bom.gov.au/fwo/IDS60801/IDS60801.95675.axf

JavaScript Object Notation format (JSON) in row-major order
http://www.bom.gov.au/fwo/IDS60801/IDS60801.95675.json